LFOH

Le Havre Octeville Airport

Le Havre/Octeville, France
TAF LFOH 221100Z 2212/2312 20010KT 9999 BKN040 TEMPO 2212/2310 4000 RA BECMG 2213/2215 12013KT TEMPO 2218/2224 24020G30KT PROB40 TEMPO 2218/2310 1500 RADZ OVC002 BECMG 2220/2224 24018G28KT TEMPO 2310/2312 24025G38KT 2000 SHRA BKN004 BKN015TCU BECMG 2310/2312 34018G30KT
Issued Valid From Valid To
Sep-22 @ 11:00 UTC
(4 hours ago)
Sep-22 @ 12:00 UTC
(3 hours ago)
Sep-23 @ 12:00 UTC
(in 21 hours)
to
to
to
to
to
to
to
to
TAF LFOH 221100Z 2212/2312 20010KT 9999 BKN040 TEMPO 2212/2310 4000 RA BECMG 2213/2215 12013KT TEMPO 2218/2224 24020G30KT PROB40 TEMPO 2218/2310 1500 RADZ OVC002 BECMG 2220/2224 24018G28KT TEMPO 2310/2312 24025G38KT 2000 SHRA BKN004 BKN015TCU BECMG 2310/2312 34018G30KT
Issued Sep-22 @ 11:00 UTC
(4 hours ago)
Valid From Sep-22 @ 12:00 UTC
(3 hours ago)
Valid To Sep-23 @ 12:00 UTC
(in 21 hours)
-
-
-
-
-
-
-
-